createdAt,value
2023-05-25T00:01:10.278Z,17.27
2023-05-25T00:03:40.396Z,12.87
2023-05-25T00:06:07.298Z,18.80
2023-05-25T00:08:33.823Z,15.77
2023-05-25T00:11:00.263Z,12.97
2023-05-25T00:13:26.710Z,15.40
2023-05-25T00:15:53.161Z,12.83
2023-05-25T00:18:19.622Z,15.70
2023-05-25T00:20:47.436Z,11.33
2023-05-25T00:23:14.120Z,14.03
2023-05-25T00:25:40.519Z,11.00
2023-05-25T00:28:07.034Z,13.20
2023-05-25T00:30:33.507Z,14.17
2023-05-25T00:33:01.524Z,15.63
2023-05-25T00:35:28.305Z,15.60
2023-05-25T00:37:54.820Z,16.23
2023-05-25T00:40:21.955Z,13.30
2023-05-25T00:42:48.715Z,11.93
2023-05-25T00:45:15.144Z,12.70
2023-05-25T00:47:43.142Z,13.23
2023-05-25T00:50:15.031Z,17.20
2023-05-25T00:52:41.722Z,16.27
2023-05-25T00:55:11.679Z,13.33
2023-05-25T00:57:41.475Z,17.57
2023-05-25T01:00:11.511Z,11.60
2023-05-25T01:02:43.687Z,13.13
2023-05-25T01:05:12.333Z,13.93
2023-05-25T01:07:42.067Z,13.43
2023-05-25T01:10:11.256Z,12.33
2023-05-25T01:12:39.011Z,14.50
2023-05-25T01:15:05.978Z,15.57
2023-05-25T01:17:33.145Z,14.10
2023-05-25T01:20:09.547Z,16.50
2023-05-25T01:22:47.817Z,13.23
2023-05-25T01:25:21.895Z,16.33
2023-05-25T01:27:56.919Z,14.10
2023-05-25T01:30:26.004Z,12.80
2023-05-25T01:32:53.395Z,14.33
2023-05-25T01:35:21.767Z,14.13
2023-05-25T01:37:49.866Z,14.73
2023-05-25T01:40:16.404Z,16.40
2023-05-25T01:42:42.828Z,12.60
2023-05-25T01:45:10.829Z,18.43
2023-05-25T01:47:53.281Z,13.67
2023-05-25T01:50:34.020Z,11.83
2023-05-25T01:53:03.852Z,13.50
2023-05-25T01:55:37.803Z,12.77
2023-05-25T01:58:05.759Z,13.43
2023-05-25T02:00:33.287Z,11.23
2023-05-25T02:03:01.473Z,14.60
2023-05-25T02:05:28.104Z,16.07
2023-05-25T02:07:54.542Z,14.03
2023-05-25T02:10:21.008Z,15.33
2023-05-25T02:12:47.409Z,16.13
2023-05-25T02:15:15.648Z,14.20
2023-05-25T02:17:43.312Z,14.97
2023-05-25T02:20:11.329Z,16.13
2023-05-25T02:22:38.176Z,13.70
2023-05-25T02:25:04.899Z,15.20
2023-05-25T02:27:31.317Z,13.50
2023-05-25T02:29:57.730Z,14.67
2023-05-25T02:32:24.818Z,14.43
2023-05-25T02:34:51.596Z,13.33
2023-05-25T02:37:17.999Z,13.00
2023-05-25T02:39:44.422Z,16.17
2023-05-25T02:42:10.828Z,18.33
2023-05-25T02:44:37.244Z,14.43
2023-05-25T02:47:03.822Z,12.73
2023-05-25T02:49:30.335Z,18.63
2023-05-25T02:51:56.736Z,13.07
2023-05-25T02:54:23.201Z,17.87
2023-05-25T02:56:49.597Z,16.63
2023-05-25T02:59:16.008Z,16.20
2023-05-25T03:01:42.434Z,21.23
2023-05-25T03:04:08.935Z,19.03
2023-05-25T03:06:36.590Z,17.67
2023-05-25T03:09:05.122Z,16.67
2023-05-25T03:11:31.556Z,17.63
2023-05-25T03:13:58.147Z,16.27
2023-05-25T03:16:25.955Z,16.47
2023-05-25T03:18:52.484Z,17.73
2023-05-25T03:21:18.899Z,17.63
2023-05-25T03:23:45.409Z,18.27
2023-05-25T03:26:11.852Z,20.77
2023-05-25T03:28:38.257Z,13.77
2023-05-25T03:31:04.702Z,17.77
2023-05-25T03:33:31.196Z,17.63
2023-05-25T03:35:57.627Z,21.47
2023-05-25T03:38:24.045Z,17.07
2023-05-25T03:40:50.538Z,19.27
2023-05-25T03:43:17.198Z,22.97
2023-05-25T03:45:43.915Z,15.13
2023-05-25T03:48:10.503Z,17.30
2023-05-25T03:50:37.023Z,16.63
2023-05-25T03:53:03.553Z,18.13
2023-05-25T03:55:30.781Z,18.13
2023-05-25T03:57:57.200Z,17.87
2023-05-25T04:00:23.752Z,19.63
2023-05-25T04:02:50.245Z,19.07
2023-05-25T04:05:16.678Z,18.23
2023-05-25T04:07:43.088Z,17.30
2023-05-25T04:10:10.000Z,21.73
2023-05-25T04:12:37.271Z,18.23
2023-05-25T04:15:05.455Z,18.20
2023-05-25T04:17:31.881Z,18.40
2023-05-25T04:19:58.339Z,16.20
2023-05-25T04:22:24.791Z,17.93
2023-05-25T04:24:51.184Z,16.83
2023-05-25T04:27:17.605Z,20.87
2023-05-25T04:29:44.089Z,21.47
2023-05-25T04:32:10.586Z,19.13
2023-05-25T04:34:37.675Z,17.37
2023-05-25T04:37:05.506Z,19.30
2023-05-25T04:39:32.685Z,16.70
2023-05-25T04:41:59.146Z,20.53
2023-05-25T04:44:25.758Z,18.77
2023-05-25T04:46:53.626Z,23.00
2023-05-25T04:49:20.160Z,23.97
2023-05-25T04:51:46.567Z,22.63
2023-05-25T04:54:13.041Z,20.00
2023-05-25T04:56:39.450Z,19.37
2023-05-25T04:59:06.250Z,20.07
2023-05-25T05:01:34.442Z,20.80
2023-05-25T05:04:00.999Z,24.30
2023-05-25T05:06:27.504Z,18.87
2023-05-25T05:08:53.923Z,21.83
2023-05-25T05:11:20.485Z,23.90
2023-05-25T05:13:46.892Z,21.70
2023-05-25T05:16:13.322Z,18.63
2023-05-25T05:18:39.766Z,25.30
2023-05-25T05:21:06.220Z,19.63
2023-05-25T05:23:34.546Z,26.00
2023-05-25T05:26:00.986Z,25.50
2023-05-25T05:28:27.502Z,28.47
2023-05-25T05:30:54.014Z,27.20
2023-05-25T05:33:20.592Z,21.20
2023-05-25T05:35:47.074Z,22.10
2023-05-25T05:38:13.465Z,23.13
2023-05-25T05:40:39.860Z,22.33
2023-05-25T05:43:06.837Z,22.23
2023-05-25T05:45:33.242Z,25.93
2023-05-25T05:47:59.701Z,23.00
2023-05-25T05:50:26.159Z,21.47
2023-05-25T05:52:53.700Z,23.20
2023-05-25T05:55:21.022Z,22.90
2023-05-25T05:57:47.456Z,23.93
2023-05-25T06:00:14.486Z,22.73
2023-05-25T06:02:41.952Z,28.20
2023-05-25T06:05:08.930Z,24.77
2023-05-25T06:07:35.525Z,26.17
2023-05-25T06:10:02.060Z,23.70
2023-05-25T06:12:28.467Z,18.90
2023-05-25T06:14:54.902Z,27.77
2023-05-25T06:17:21.536Z,17.87
2023-05-25T06:19:48.001Z,25.53
2023-05-25T06:22:14.398Z,25.57
2023-05-25T06:24:40.920Z,23.00
2023-05-25T06:27:07.414Z,22.20
2023-05-25T06:29:34.024Z,20.53
2023-05-25T06:32:00.732Z,26.00
2023-05-25T06:34:27.220Z,24.60
2023-05-25T06:36:53.629Z,26.13
2023-05-25T06:39:20.663Z,20.90
2023-05-25T06:41:47.128Z,17.50
2023-05-25T06:44:13.536Z,21.80
2023-05-25T06:46:40.101Z,22.00
2023-05-25T06:49:06.679Z,22.20
2023-05-25T06:51:33.429Z,24.13
2023-05-25T06:53:59.831Z,21.13
2023-05-25T06:56:26.388Z,21.70
2023-05-25T06:58:52.816Z,24.70
2023-05-25T07:01:19.368Z,21.83
2023-05-25T07:03:45.904Z,25.40
2023-05-25T07:06:12.874Z,18.43
2023-05-25T07:08:39.462Z,18.27
2023-05-25T07:11:06.075Z,19.40
2023-05-25T07:13:32.489Z,21.00
2023-05-25T07:15:58.918Z,22.70
2023-05-25T07:18:26.292Z,20.63
2023-05-25T07:20:53.475Z,27.63
2023-05-25T07:23:20.101Z,19.67
2023-05-25T07:25:46.773Z,20.67
2023-05-25T07:28:13.348Z,17.90
2023-05-25T07:30:40.956Z,22.27
2023-05-25T07:33:07.473Z,15.63
2023-05-25T07:35:35.412Z,21.73
2023-05-25T07:38:05.124Z,20.00
2023-05-25T07:40:31.544Z,15.03
2023-05-25T07:42:58.025Z,14.60
2023-05-25T07:45:24.513Z,14.10
2023-05-25T07:47:51.173Z,17.45
2023-05-25T07:50:17.901Z,13.77
2023-05-25T07:52:44.353Z,15.43
2023-05-25T07:55:11.216Z,17.37
2023-05-25T07:57:37.696Z,17.60
2023-05-25T08:00:10.998Z,15.93
2023-05-25T08:02:37.553Z,15.63
2023-05-25T08:05:06.082Z,18.80
2023-05-25T08:07:33.615Z,15.02
2023-05-25T08:10:00.467Z,15.27
2023-05-25T08:12:45.864Z,14.98
2023-05-25T08:15:16.516Z,14.60
2023-05-25T08:17:43.096Z,12.25
2023-05-25T08:20:10.334Z,16.25
2023-05-25T08:22:36.908Z,18.63
2023-05-25T08:25:04.584Z,15.95
2023-05-25T08:27:32.789Z,16.92
2023-05-25T08:30:01.095Z,15.55
2023-05-25T08:32:27.524Z,15.25
2023-05-25T08:34:53.975Z,17.35
2023-05-25T08:37:23.304Z,15.32
2023-05-25T08:39:49.797Z,16.52
2023-05-25T08:42:16.251Z,13.35
2023-05-25T08:44:42.753Z,14.88
2023-05-25T08:47:11.810Z,19.85
2023-05-25T08:49:39.420Z,10.35
2023-05-25T08:52:10.552Z,22.17
2023-05-25T08:54:37.937Z,16.85
2023-05-25T08:57:15.120Z,14.45
2023-05-25T08:59:47.875Z,15.35
2023-05-25T09:02:22.499Z,12.88
2023-05-25T09:04:49.330Z,14.40
2023-05-25T09:07:16.287Z,11.20
2023-05-25T09:09:43.477Z,11.63
2023-05-25T09:12:10.906Z,18.15
2023-05-25T09:14:38.028Z,11.90
2023-05-25T09:17:04.734Z,12.05
2023-05-25T09:19:31.163Z,13.50
2023-05-25T09:22:13.470Z,12.98
2023-05-25T09:24:41.456Z,11.57
2023-05-25T09:27:11.764Z,12.00
2023-05-25T09:29:38.437Z,13.23
2023-05-25T09:32:06.777Z,14.63
2023-05-25T09:34:36.233Z,10.95
2023-05-25T09:37:04.493Z,14.00
2023-05-25T09:39:31.145Z,13.80
2023-05-25T09:41:57.860Z,13.70
2023-05-25T09:44:24.286Z,8.93
2023-05-25T09:46:51.052Z,10.93
2023-05-25T09:49:17.500Z,11.00
2023-05-25T09:51:44.053Z,11.90
2023-05-25T09:54:11.207Z,12.40
2023-05-25T09:56:37.700Z,15.80
2023-05-25T09:59:04.150Z,13.15
2023-05-25T10:01:32.611Z,11.05
2023-05-25T10:04:10.296Z,10.38
2023-05-25T10:06:38.971Z,16.67
2023-05-25T10:09:06.879Z,14.02
2023-05-25T10:11:36.276Z,11.57
2023-05-25T10:14:07.047Z,9.95
2023-05-25T10:16:34.511Z,10.27
2023-05-25T10:19:16.137Z,13.02
2023-05-25T10:21:45.647Z,11.05
2023-05-25T10:24:38.332Z,11.52
2023-05-25T10:27:22.516Z,8.68
2023-05-25T10:29:55.916Z,13.98
2023-05-25T10:32:23.030Z,12.00
2023-05-25T10:34:52.260Z,14.35
2023-05-25T10:37:18.796Z,11.35
2023-05-25T10:39:45.986Z,11.48
2023-05-25T10:42:13.181Z,11.43
2023-05-25T10:44:43.004Z,10.85
2023-05-25T10:47:10.436Z,13.63
2023-05-25T10:49:53.564Z,15.35
2023-05-25T10:52:20.412Z,12.88
2023-05-25T10:54:48.523Z,9.35
2023-05-25T10:57:20.655Z,10.60
2023-05-25T10:59:52.145Z,11.57
2023-05-25T11:02:24.812Z,12.75
2023-05-25T11:05:26.184Z,10.60
2023-05-25T11:07:59.653Z,11.88
2023-05-25T11:10:38.209Z,12.75
2023-05-25T11:13:32.107Z,13.88
2023-05-25T11:16:14.787Z,11.18
2023-05-25T11:18:41.973Z,13.15
2023-05-25T11:21:22.301Z,12.18
2023-05-25T11:24:16.367Z,11.65
2023-05-25T11:27:05.948Z,13.65
2023-05-25T11:29:33.068Z,11.45
2023-05-25T11:32:00.678Z,10.68
2023-05-25T11:34:28.121Z,11.68
2023-05-25T11:36:58.435Z,10.27
2023-05-25T11:39:24.879Z,18.50
2023-05-25T11:41:55.994Z,11.07
2023-05-25T11:44:29.606Z,11.98
2023-05-25T11:46:57.482Z,10.80
2023-05-25T11:49:25.882Z,11.05
2023-05-25T11:51:53.517Z,9.82
2023-05-25T11:54:28.133Z,15.02
2023-05-25T11:56:59.070Z,13.10
2023-05-25T11:59:28.217Z,14.40
2023-05-25T12:02:01.080Z,10.60
2023-05-25T12:04:28.921Z,12.48
2023-05-25T12:07:06.780Z,12.15
2023-05-25T12:09:33.995Z,16.27
2023-05-25T12:12:02.840Z,17.15
2023-05-25T12:14:29.941Z,19.55
2023-05-25T12:16:57.698Z,16.35
2023-05-25T12:19:24.270Z,13.95
2023-05-25T12:21:51.802Z,13.43
2023-05-25T12:24:18.910Z,12.60
2023-05-25T12:26:58.793Z,18.60
2023-05-25T12:29:26.342Z,16.48
2023-05-25T12:31:52.756Z,15.52
2023-05-25T12:34:20.163Z,14.38
2023-05-25T12:36:49.871Z,15.95
2023-05-25T12:39:29.359Z,14.27
2023-05-25T12:42:00.001Z,10.40
2023-05-25T12:44:31.340Z,13.50
2023-05-25T12:47:11.605Z,12.85
2023-05-25T12:49:38.796Z,13.40
2023-05-25T12:52:06.125Z,13.40
2023-05-25T12:54:44.014Z,14.93
2023-05-25T12:57:13.094Z,11.50
2023-05-25T12:59:44.966Z,13.70
2023-05-25T13:02:13.008Z,12.90
2023-05-25T13:04:41.093Z,11.50
2023-05-25T13:07:10.945Z,11.77
2023-05-25T13:09:37.661Z,19.20
2023-05-25T13:12:04.507Z,12.52
2023-05-25T13:14:31.040Z,13.20
2023-05-25T13:16:57.678Z,15.25
2023-05-25T13:19:25.703Z,14.48
2023-05-25T13:21:52.782Z,15.32
2023-05-25T13:24:22.435Z,15.85
2023-05-25T13:26:51.106Z,18.02
2023-05-25T13:29:17.998Z,37.25
2023-05-25T13:31:44.520Z,22.38
2023-05-25T13:34:11.017Z,11.82
2023-05-25T13:36:37.448Z,11.45
2023-05-25T13:39:05.278Z,14.98
2023-05-25T13:41:31.808Z,14.15
2023-05-25T13:43:58.335Z,10.30
2023-05-25T13:46:34.017Z,11.48
2023-05-25T13:49:02.570Z,9.35
2023-05-25T13:51:28.981Z,10.75
2023-05-25T13:53:55.408Z,13.32
2023-05-25T13:56:22.339Z,10.75
2023-05-25T13:58:48.804Z,11.82
2023-05-25T14:01:15.251Z,9.48
2023-05-25T14:03:41.811Z,10.00
2023-05-25T14:06:08.315Z,12.65
2023-05-25T14:08:34.731Z,9.30
2023-05-25T14:11:01.235Z,9.10
2023-05-25T14:13:27.627Z,11.60
2023-05-25T14:15:54.040Z,11.23
2023-05-25T14:18:20.496Z,10.45
2023-05-25T14:20:47.335Z,10.38
2023-05-25T14:23:15.848Z,8.82
2023-05-25T14:25:44.357Z,9.98
2023-05-25T14:28:10.936Z,12.55
2023-05-25T14:30:37.343Z,11.52
2023-05-25T14:33:03.899Z,12.13
2023-05-25T14:35:30.330Z,11.07
2023-05-25T14:37:56.748Z,8.82
2023-05-25T14:40:23.150Z,10.13
2023-05-25T14:42:49.757Z,9.10
2023-05-25T14:45:16.376Z,10.20
2023-05-25T14:47:42.982Z,8.68
2023-05-25T14:50:09.615Z,8.75
2023-05-25T14:52:37.283Z,8.18
2023-05-25T14:55:03.844Z,10.32
2023-05-25T14:57:30.367Z,8.23
2023-05-25T14:59:57.027Z,7.97
2023-05-25T15:02:23.482Z,10.63
2023-05-25T15:04:49.962Z,7.53
2023-05-25T15:07:16.373Z,8.00
2023-05-25T15:09:43.164Z,8.65
2023-05-25T15:12:09.697Z,7.85
2023-05-25T15:14:41.140Z,8.35
2023-05-25T15:17:10.736Z,8.77
2023-05-25T15:19:37.610Z,7.80
2023-05-25T15:22:04.211Z,8.38
2023-05-25T15:24:30.694Z,9.15
2023-05-25T15:26:57.098Z,7.15
2023-05-25T15:29:23.576Z,8.27
2023-05-25T15:31:53.707Z,11.10
2023-05-25T15:34:20.556Z,9.25
2023-05-25T15:36:46.999Z,8.10
2023-05-25T15:39:14.666Z,9.98
2023-05-25T15:41:41.728Z,7.72
2023-05-25T15:44:12.231Z,8.45
2023-05-25T15:46:40.170Z,7.93
2023-05-25T15:49:11.169Z,7.57
2023-05-25T15:51:41.905Z,9.05
2023-05-25T15:54:11.949Z,7.28
2023-05-25T15:56:39.989Z,7.50
2023-05-25T15:59:06.767Z,8.35
2023-05-25T16:01:36.828Z,11.15
2023-05-25T16:04:04.164Z,7.05
2023-05-25T16:06:31.973Z,7.45
2023-05-25T16:08:58.824Z,7.90
2023-05-25T16:11:26.982Z,9.88
2023-05-25T16:13:53.994Z,9.23
2023-05-25T16:16:20.736Z,7.90
2023-05-25T16:18:47.331Z,11.13
2023-05-25T16:21:13.839Z,9.18
2023-05-25T16:23:40.300Z,7.28
2023-05-25T16:26:09.938Z,7.97
2023-05-25T16:28:37.458Z,6.60
2023-05-25T16:31:05.510Z,7.70
2023-05-25T16:33:32.791Z,8.23
2023-05-25T16:35:59.995Z,7.75
2023-05-25T16:38:26.507Z,6.90
2023-05-25T16:40:52.960Z,6.50
2023-05-25T16:43:19.578Z,9.10
2023-05-25T16:45:46.243Z,5.18
2023-05-25T16:48:12.927Z,7.72
2023-05-25T16:50:39.377Z,8.48
2023-05-25T16:53:06.227Z,8.15
2023-05-25T16:55:33.619Z,10.65
2023-05-25T16:58:00.097Z,8.32
2023-05-25T17:00:26.572Z,7.70
2023-05-25T17:02:53.135Z,8.07
2023-05-25T17:05:19.683Z,10.80
2023-05-25T17:07:46.256Z,7.80
2023-05-25T17:10:12.728Z,10.23
2023-05-25T17:12:39.143Z,10.55
2023-05-25T17:15:05.970Z,11.05
2023-05-25T17:17:32.403Z,8.85
2023-05-25T17:19:58.937Z,7.80
2023-05-25T17:22:25.400Z,12.27
2023-05-25T17:24:51.826Z,6.82
2023-05-25T17:27:18.581Z,10.75
2023-05-25T17:29:44.986Z,7.57
2023-05-25T17:32:11.475Z,8.70
2023-05-25T17:34:38.016Z,8.93
2023-05-25T17:37:04.492Z,9.48
2023-05-25T17:39:30.910Z,10.95
2023-05-25T17:41:57.889Z,9.93
2023-05-25T17:44:25.340Z,10.40
2023-05-25T17:46:51.764Z,10.93
2023-05-25T17:49:18.223Z,7.47
2023-05-25T17:51:44.628Z,9.27
2023-05-25T17:54:15.296Z,9.43
2023-05-25T17:56:42.099Z,10.27
2023-05-25T17:59:09.551Z,8.32
2023-05-25T18:01:36.054Z,10.73
2023-05-25T18:04:02.695Z,7.78
2023-05-25T18:06:29.487Z,8.95
2023-05-25T18:08:56.104Z,7.38
2023-05-25T18:11:23.331Z,10.98
2023-05-25T18:13:50.272Z,8.95
2023-05-25T18:16:16.897Z,9.40
2023-05-25T18:18:43.361Z,8.63
2023-05-25T18:21:09.786Z,6.70
2023-05-25T18:23:36.191Z,8.18
2023-05-25T18:26:04.433Z,8.88
2023-05-25T18:28:31.454Z,9.27
2023-05-25T18:30:58.024Z,11.85
2023-05-25T18:33:24.490Z,9.38
2023-05-25T18:35:50.934Z,7.78
2023-05-25T18:38:17.359Z,7.65
2023-05-25T18:40:43.798Z,7.70
2023-05-25T18:43:10.303Z,11.38
2023-05-25T18:45:36.731Z,7.15
2023-05-25T18:48:09.191Z,6.22
2023-05-25T18:50:37.611Z,8.80
2023-05-25T18:53:09.873Z,8.82
2023-05-25T18:55:37.310Z,8.05
2023-05-25T18:58:03.994Z,7.78
2023-05-25T19:00:30.902Z,8.35
2023-05-25T19:02:57.443Z,8.55
2023-05-25T19:05:24.444Z,8.55
2023-05-25T19:07:59.003Z,10.48
2023-05-25T19:10:25.771Z,10.00
2023-05-25T19:12:52.231Z,10.13
2023-05-25T19:15:18.670Z,8.90
2023-05-25T19:17:46.594Z,8.45
2023-05-25T19:20:13.202Z,10.15
2023-05-25T19:22:40.327Z,11.75
2023-05-25T19:25:07.278Z,7.35
2023-05-25T19:27:33.734Z,9.38
2023-05-25T19:30:00.353Z,7.82
2023-05-25T19:32:26.810Z,8.50
2023-05-25T19:34:53.249Z,10.95
2023-05-25T19:37:19.670Z,10.35
2023-05-25T19:39:46.081Z,8.38
2023-05-25T19:42:12.488Z,9.73
2023-05-25T19:44:40.565Z,12.82
2023-05-25T19:47:07.409Z,9.88
2023-05-25T19:49:33.851Z,10.23
2023-05-25T19:52:00.265Z,9.05
2023-05-25T19:54:26.668Z,8.15
2023-05-25T19:56:54.051Z,12.13
2023-05-25T19:59:21.686Z,12.77
2023-05-25T20:01:48.511Z,10.80
2023-05-25T20:04:15.090Z,9.88
2023-05-25T20:06:41.506Z,8.45
2023-05-25T20:09:12.328Z,8.88
2023-05-25T20:11:38.783Z,8.27
2023-05-25T20:14:07.373Z,12.57
2023-05-25T20:16:33.951Z,8.98
2023-05-25T20:19:00.522Z,8.57
2023-05-25T20:21:26.972Z,10.15
2023-05-25T20:23:53.416Z,8.90
2023-05-25T20:26:19.835Z,15.48
2023-05-25T20:28:46.266Z,10.38
2023-05-25T20:31:12.717Z,11.13
2023-05-25T20:33:39.108Z,15.93
2023-05-25T20:36:05.751Z,10.65
2023-05-25T20:38:32.164Z,17.15
2023-05-25T20:40:58.624Z,12.77
2023-05-25T20:43:25.048Z,14.27
2023-05-25T20:45:51.512Z,12.15
2023-05-25T20:48:18.083Z,14.15
2023-05-25T20:50:44.518Z,11.63
2023-05-25T20:53:10.996Z,13.43
2023-05-25T20:55:37.496Z,13.00
2023-05-25T20:58:03.889Z,16.05
2023-05-25T21:00:30.560Z,16.25
2023-05-25T21:02:57.087Z,12.93
2023-05-25T21:05:23.581Z,13.00
2023-05-25T21:07:51.384Z,13.15
2023-05-25T21:10:17.861Z,18.45
2023-05-25T21:12:44.304Z,15.07
2023-05-25T21:15:10.746Z,15.02
2023-05-25T21:17:37.215Z,14.15
2023-05-25T21:20:03.989Z,13.60
2023-05-25T21:22:30.521Z,19.10
2023-05-25T21:24:57.204Z,16.67
2023-05-25T21:27:23.612Z,12.15
2023-05-25T21:29:50.080Z,14.65
2023-05-25T21:32:16.491Z,13.15
2023-05-25T21:34:42.891Z,15.90
2023-05-25T21:37:09.304Z,14.43
2023-05-25T21:39:35.750Z,13.52
2023-05-25T21:42:02.387Z,19.58
2023-05-25T21:44:28.814Z,22.88
2023-05-25T21:46:55.323Z,14.80
2023-05-25T21:49:21.770Z,16.88
2023-05-25T21:51:48.179Z,19.23
2023-05-25T21:54:14.593Z,14.70
2023-05-25T21:56:41.014Z,20.15
2023-05-25T21:59:07.479Z,14.63
2023-05-25T22:01:34.085Z,16.13
2023-05-25T22:04:00.653Z,14.40
2023-05-25T22:06:27.065Z,17.00
2023-05-25T22:08:53.520Z,17.45
2023-05-25T22:11:22.151Z,20.73
2023-05-25T22:13:48.636Z,20.50
2023-05-25T22:16:15.125Z,14.70
2023-05-25T22:18:41.559Z,16.13
2023-05-25T22:21:07.969Z,15.15
2023-05-25T22:23:34.644Z,18.40
2023-05-25T22:26:01.113Z,15.65
2023-05-25T22:28:27.514Z,17.05
2023-05-25T22:30:53.985Z,16.42
2023-05-25T22:33:20.451Z,16.10
2023-05-25T22:35:47.030Z,16.77
2023-05-25T22:38:13.631Z,18.47
2023-05-25T22:40:40.049Z,19.50
2023-05-25T22:43:12.667Z,17.05
2023-05-25T22:45:39.871Z,20.48
2023-05-25T22:48:07.076Z,17.87
2023-05-25T22:50:33.493Z,23.30
2023-05-25T22:52:59.942Z,17.83
2023-05-25T22:55:26.376Z,22.87
2023-05-25T22:57:52.786Z,16.77
2023-05-25T23:00:19.259Z,19.93
2023-05-25T23:02:45.756Z,18.40
2023-05-25T23:05:12.274Z,19.83
2023-05-25T23:07:38.760Z,21.77
2023-05-25T23:10:05.644Z,21.77
2023-05-25T23:12:32.059Z,15.27
2023-05-25T23:15:00.654Z,20.47
2023-05-25T23:17:27.096Z,21.27
2023-05-25T23:19:53.632Z,25.37
2023-05-25T23:22:20.519Z,18.23
2023-05-25T23:24:46.968Z,17.57
2023-05-25T23:27:13.401Z,20.40
2023-05-25T23:29:39.832Z,20.03
2023-05-25T23:32:06.834Z,26.40
2023-05-25T23:34:33.322Z,14.77
2023-05-25T23:36:59.719Z,20.47
2023-05-25T23:39:26.332Z,21.47
2023-05-25T23:41:52.785Z,23.43
2023-05-25T23:44:19.231Z,20.23
2023-05-25T23:46:45.665Z,19.83
2023-05-25T23:49:12.068Z,22.13
2023-05-25T23:51:38.613Z,19.17
2023-05-25T23:54:05.034Z,16.57
2023-05-25T23:56:32.614Z,27.47
2023-05-25T23:58:59.064Z,20.93
